Home > Products > Valid Products > TAF

000
FTUS43 KGRB 240500
TAFGRB
TAF
KGRB 240520Z 2406/2506 10005KT P6SM SCT050 OVC090
      TEMPO 2409/2413 5SM -RA OVC040
     FM241300 11012G21KT 4SM -RA BR BKN030 OVC045 WS020/14035KT
     FM241900 10018G27KT 3SM -RA BR BKN035 OVC040 WS020/15045KT
     FM250200 14009KT 6SM -RA BR BKN015 OVC040 WS020/15075KT=



000
FTUS43 KGRB 240500
TAFGRB
TAF
KGRB 240520Z 2406/2506 10005KT P6SM SCT050 OVC090
      TEMPO 2409/2413 5SM -RA OVC040
     FM241300 11012G21KT 4SM -RA BR BKN030 OVC045 WS020/14035KT
     FM241900 10018G27KT 3SM -RA BR BKN035 OVC040 WS020/15045KT
     FM250200 14009KT 6SM -RA BR BKN015 OVC040 WS020/15075KT=



000
FTUS43 KGRB 232300
TAFGRB
TAF
KGRB 232320Z 2400/2424 09008KT P6SM SCT080 OVC150
     FM240500 10005KT P6SM SCT050 OVC090
      TEMPO 2409/2413 5SM -RA OVC040
     FM241300 11012G21KT 4SM -RA BR BKN030 OVC045 WS020/14035KT
     FM241900 10017G26KT 3SM -RA BR BKN035 OVC040 WS020/15045KT=



000
FTUS43 KGRB 232300
TAFGRB
TAF
KGRB 232320Z 2400/2424 09008KT P6SM SCT080 OVC150
     FM240500 10005KT P6SM SCT050 OVC090
      TEMPO 2409/2413 5SM -RA OVC040
     FM241300 11012G21KT 4SM -RA BR BKN030 OVC045 WS020/14035KT
     FM241900 10017G26KT 3SM -RA BR BKN035 OVC040 WS020/15045KT=



000
FTUS43 KGRB 231700 RRA
TAFGRB
TAF
KGRB 231741Z 2318/2418 06009KT P6SM BKN200
     FM232100 11008KT P6SM SCT100 BKN250
     FM240500 11005KT P6SM SCT040 BKN080
      TEMPO 2409/2413 5SM -SHRA OVC040
     FM241300 13012G21KT 4SM -SHRA BR OVC035=



000
FTUS43 KGRB 231700 RRA
TAFGRB
TAF
KGRB 231741Z 2318/2418 06009KT P6SM BKN200
     FM232100 11008KT P6SM SCT100 BKN250
     FM240500 11005KT P6SM SCT040 BKN080
      TEMPO 2409/2413 5SM -SHRA OVC040
     FM241300 13012G21KT 4SM -SHRA BR OVC035=



000
FTUS43 KGRB 231100
TAFGRB
TAF
KGRB 231134Z 2312/2412 33004KT P6SM BKN250
     FM231500 04007KT P6SM BKN250
     FM232100 11007KT P6SM SCT100 BKN250
     FM240500 11005KT P6SM -SHRA SCT040 BKN080=



000
FTUS43 KGRB 231100
TAFGRB
TAF
KGRB 231134Z 2312/2412 33004KT P6SM BKN250
     FM231500 04007KT P6SM BKN250
     FM232100 11007KT P6SM SCT100 BKN250
     FM240500 11005KT P6SM -SHRA SCT040 BKN080=



000
FTUS43 KGRB 230500
TAFGRB
TAF
KGRB 230520Z 2306/2406 01004KT P6SM SKC
     FM231500 04007KT P6SM BKN250
     FM232100 12008KT P6SM SCT070 BKN100
     FM240300 13005KT P6SM SCT040 BKN080=



000
FTUS43 KGRB 230500
TAFGRB
TAF
KGRB 230520Z 2306/2406 01004KT P6SM SKC
     FM231500 04007KT P6SM BKN250
     FM232100 12008KT P6SM SCT070 BKN100
     FM240300 13005KT P6SM SCT040 BKN080=



000
FTUS43 KGRB 222300
TAFGRB
TAF
KGRB 222329Z 2300/2324 36013KT P6SM SCT060
     FM230200 01008KT P6SM FEW070
     FM230600 01004KT P6SM SKC
     FM231500 04007KT P6SM BKN250
     FM232000 12008KT P6SM SCT070 BKN100=



000
FTUS43 KGRB 221700
TAFGRB
TAF
KGRB 221728Z 2218/2318 32016G24KT P6SM SCT040
      TEMPO 2218/2220 BKN040
     FM222200 36014G20KT P6SM FEW050
     FM230200 36005KT P6SM SKC
     FM231200 07004KT P6SM BKN200=



000
FTUS43 KGRB 221700
TAFGRB
TAF
KGRB 221728Z 2218/2318 32016G24KT P6SM SCT040
      TEMPO 2218/2220 BKN040
     FM222200 36014G20KT P6SM FEW050
     FM230200 36005KT P6SM SKC
     FM231200 07004KT P6SM BKN200=



000
FTUS43 KGRB 221200 AAA
TAFGRB
TAF AMD
KGRB 221239Z 2213/2312 31012G15KT P6SM SCT035
      TEMPO 2213/2215 BKN035
     FM221500 33016G27KT P6SM SCT040
      TEMPO 2215/2218 BKN040
     FM222200 02009KT P6SM FEW050
     FM230200 04003KT P6SM SKC=



000
FTUS43 KGRB 221200 AAA
TAFGRB
TAF AMD
KGRB 221239Z 2213/2312 31012G15KT P6SM SCT035
      TEMPO 2213/2215 BKN035
     FM221500 33016G27KT P6SM SCT040
      TEMPO 2215/2218 BKN040
     FM222200 02009KT P6SM FEW050
     FM230200 04003KT P6SM SKC=



000
FTUS43 KGRB 221100
TAFGRB
TAF
KGRB 221125Z 2212/2312 31010KT P6SM SCT040
     FM221400 33016G27KT P6SM SCT040
      TEMPO 2214/2218 BKN040
     FM222200 02009KT P6SM FEW050
     FM230200 04003KT P6SM SKC=



000
FTUS43 KGRB 221100
TAFGRB
TAF
KGRB 221125Z 2212/2312 31010KT P6SM SCT040
     FM221400 33016G27KT P6SM SCT040
      TEMPO 2214/2218 BKN040
     FM222200 02009KT P6SM FEW050
     FM230200 04003KT P6SM SKC=



000
FTUS43 KGRB 220900 AAA
TAFGRB
TAF AMD
KGRB 220944Z 2210/2306 31010KT P6SM FEW045
     FM221500 33016G27KT P6SM SCT050
      TEMPO 2217/2221 BKN050
     FM222300 35009KT P6SM FEW060
     FM230100 04003KT P6SM SKC=



000
FTUS43 KGRB 220900 AAA
TAFGRB
TAF AMD
KGRB 220944Z 2210/2306 31010KT P6SM FEW045
     FM221500 33016G27KT P6SM SCT050
      TEMPO 2217/2221 BKN050
     FM222300 35009KT P6SM FEW060
     FM230100 04003KT P6SM SKC=



000
FTUS43 KGRB 220500
TAFGRB
TAF
KGRB 220520Z 2206/2306 33013G20KT P6SM SCT045
     FM221500 33018G27KT P6SM SCT050
      TEMPO 2217/2221 BKN050
     FM222300 35009KT P6SM FEW060
     FM230100 04003KT P6SM SKC=



000
FTUS43 KGRB 220500
TAFGRB
TAF
KGRB 220520Z 2206/2306 33013G20KT P6SM SCT045
     FM221500 33018G27KT P6SM SCT050
      TEMPO 2217/2221 BKN050
     FM222300 35009KT P6SM FEW060
     FM230100 04003KT P6SM SKC=



000
FTUS43 KGRB 220400 AAA
TAFGRB
TAF AMD
KGRB 220458Z 2205/2224 33012G20KT P6SM SCT035
     FM220900 31012G20KT P6SM BKN035
     FM221500 33017G24KT P6SM BKN040=



000
FTUS43 KGRB 220400 AAA
TAFGRB
TAF AMD
KGRB 220458Z 2205/2224 33012G20KT P6SM SCT035
     FM220900 31012G20KT P6SM BKN035
     FM221500 33017G24KT P6SM BKN040=



000
FTUS43 KGRB 212300
TAFGRB
TAF
KGRB 212327Z 2200/2224 27008KT P6SM SCT040 SCT080
     FM220200 31011G17KT P6SM SCT025
     FM220900 31012G20KT P6SM OVC030
     FM221500 33017G24KT P6SM BKN040=



000
FTUS43 KGRB 212300
TAFGRB
TAF
KGRB 212327Z 2200/2224 27008KT P6SM SCT040 SCT080
     FM220200 31011G17KT P6SM SCT025
     FM220900 31012G20KT P6SM OVC030
     FM221500 33017G24KT P6SM BKN040=



000
FTUS43 KGRB 211700
TAFGRB
TAF
KGRB 211730Z 2118/2218 26006KT 6SM HZ VCSH SCT040 OVC080
      TEMPO 2118/2122 3SM -SHRA BR BKN025 OVC040
     FM212200 32012KT P6SM SCT025 BKN040
     FM220200 33013G21KT P6SM SCT025
     FM220900 31012G20KT P6SM OVC030
     FM221500 33017G24KT P6SM BKN040=



000
FTUS43 KGRB 211200 AAA
TAFGRB
TAF AMD
KGRB 211236Z 2113/2212 VRB03KT 1 1/2SM -SHRA BR SCT060 OVC100
      TEMPO 2113/2114 1/2SM FG SCT002 BKN050
     FM211400 22007KT 4SM BR VCSH BKN040 OVC080
      TEMPO 2118/2122 2SM TSRA BR BKN025CB OVC040
     FM212200 32012KT P6SM SCT025 BKN040
     FM220200 33013G21KT P6SM SCT025=



000
FTUS43 KGRB 211200 AAA
TAFGRB
TAF AMD
KGRB 211236Z 2113/2212 VRB03KT 1 1/2SM -SHRA BR SCT060 OVC100
      TEMPO 2113/2114 1/2SM FG SCT002 BKN050
     FM211400 22007KT 4SM BR VCSH BKN040 OVC080
      TEMPO 2118/2122 2SM TSRA BR BKN025CB OVC040
     FM212200 32012KT P6SM SCT025 BKN040
     FM220200 33013G21KT P6SM SCT025=



000
FTUS43 KGRB 211100
TAFGRB
TAF
KGRB 211126Z 2112/2212 VRB03KT 1SM -SHRA BR SCT060 OVC100
      TEMPO 2112/2113 1/4SM FG BKN002 BKN050
     FM211400 22007KT 4SM BR VCSH BKN040 OVC080
      TEMPO 2118/2122 2SM TSRA BR BKN025CB OVC040
     FM212200 32012KT P6SM SCT025 BKN040
     FM220200 33013G21KT P6SM SCT025=



000
FTUS43 KGRB 211100
TAFGRB
TAF
KGRB 211126Z 2112/2212 VRB03KT 1SM -SHRA BR SCT060 OVC100
      TEMPO 2112/2113 1/4SM FG BKN002 BKN050
     FM211400 22007KT 4SM BR VCSH BKN040 OVC080
      TEMPO 2118/2122 2SM TSRA BR BKN025CB OVC040
     FM212200 32012KT P6SM SCT025 BKN040
     FM220200 33013G21KT P6SM SCT025=



000
FTUS43 KGRB 210900 AAA
TAFGRB
TAF AMD
KGRB 210927Z 2109/2206 VRB03KT 3SM BR SCT060 OVC100
      TEMPO 2109/2113 1SM -SHRA BR BKN050
     FM211500 16004KT 4SM BR BKN020 BKN040
     FM211700 VRB03KT 6SM -SHRA BR BKN020 BKN040
      TEMPO 2117/2121 1SM -TSRA BR BKN020CB
     FM212300 32009KT P6SM SCT020 BKN040
     FM220200 33011G20KT P6SM SCT040 SCT090=



000
FTUS43 KGRB 210900 AAA
TAFGRB
TAF AMD
KGRB 210927Z 2109/2206 VRB03KT 3SM BR SCT060 OVC100
      TEMPO 2109/2113 1SM -SHRA BR BKN050
     FM211500 16004KT 4SM BR BKN020 BKN040
     FM211700 VRB03KT 6SM -SHRA BR BKN020 BKN040
      TEMPO 2117/2121 1SM -TSRA BR BKN020CB
     FM212300 32009KT P6SM SCT020 BKN040
     FM220200 33011G20KT P6SM SCT040 SCT090=



    US Dept of Commerce
    National Oceanic and Atmospheric Administration
    National Weather Service
    1325 East West Highway
    Silver Spring, MD 20910
    Page Author: NWS Internet Services Team
Disclaimer
Information Quality
Credits
Glossary
Privacy Policy
Freedom of Information Act (FOIA)
About Us
Career Opportunities